Time;durP1;ratioP1;P1;durP2;ratioP2;P2;SDS_P1;SDS_P2;PMS_P1;PMS_P2;Temp;Humidity;BMP_temperature;BMP_pressure;BME280_temperature;BME280_humidity;BME280_pressure;Samples;Min_cycle;Max_cycle;Signal;HPM_P1;HPM_P2
2022/11/15 00:01:46;;;;;;;18.20;6.15;;;10.70;99.90;;;;;;4960791;28;20027;-69
2022/11/15 00:04:11;;;;;;;16.60;6.07;;;10.80;99.90;;;;;;4977687;28;20066;-69
2022/11/15 00:06:37;;;;;;;12.73;5.75;;;10.70;99.90;;;;;;4977488;28;20033;-69
2022/11/15 00:09:03;;;;;;;11.45;5.65;;;10.70;99.90;;;;;;4960792;28;20030;-69
2022/11/15 00:11:29;;;;;;;15.02;6.15;;;10.90;99.90;;;;;;4960115;28;20019;-69
2022/11/15 00:13:56;;;;;;;11.52;6.10;;;11.00;99.90;;;;;;4977237;28;20098;-69
2022/11/15 00:16:22;;;;;;;12.45;6.60;;;10.90;99.90;;;;;;4977251;28;20019;-69
2022/11/15 00:18:47;;;;;;;10.90;5.45;;;11.00;99.90;;;;;;4960340;28;20035;-69
2022/11/15 00:21:14;;;;;;;13.10;6.38;;;10.90;99.90;;;;;;4960114;28;20075;-69
2022/11/15 00:23:40;;;;;;;13.25;5.38;;;10.90;99.90;;;;;;4959814;28;20125;-69
2022/11/15 00:26:06;;;;;;;13.20;5.80;;;10.90;99.90;;;;;;4959756;28;20138;-69
2022/11/15 00:28:32;;;;;;;11.73;5.88;;;10.90;99.90;;;;;;4959960;28;20027;-69
2022/11/15 00:31:05;;;;;;;14.75;6.15;;;10.80;99.90;;;;;;4977351;28;20078;-69
2022/11/15 00:33:32;;;;;;;12.75;6.25;;;10.60;99.90;;;;;;4975420;28;20086;-69
2022/11/15 00:36:04;;;;;;;11.07;5.43;;;10.50;99.90;;;;;;4959868;28;20042;-69
2022/11/15 00:38:33;;;;;;;8.98;5.63;;;10.40;99.90;;;;;;4959704;28;20057;-69
2022/11/15 00:41:00;;;;;;;11.60;6.15;;;10.50;99.90;;;;;;4976862;28;20110;-69
2022/11/15 00:43:26;;;;;;;12.48;5.78;;;10.60;99.90;;;;;;4976785;28;20105;-69
2022/11/15 00:45:51;;;;;;;12.00;5.45;;;10.70;99.90;;;;;;4959758;28;20121;-69
2022/11/15 00:48:17;;;;;;;10.00;5.25;;;10.70;99.90;;;;;;4959430;28;20023;-69
2022/11/15 00:50:43;;;;;;;15.75;5.97;;;10.80;99.90;;;;;;4976963;28;20029;-69
2022/11/15 00:53:08;;;;;;;10.18;5.70;;;10.80;99.90;;;;;;4959205;28;20015;-69
2022/11/15 00:55:34;;;;;;;12.35;5.65;;;10.90;99.90;;;;;;4959341;28;20118;-69
2022/11/15 00:57:59;;;;;;;10.20;5.72;;;10.90;99.90;;;;;;4959371;28;20022;-69
2022/11/15 01:00:25;;;;;;;15.63;6.40;;;10.90;99.90;;;;;;4976576;28;20027;-69
2022/11/15 01:02:50;;;;;;;10.25;5.80;;;11.00;99.90;;;;;;4959208;28;20015;-69
2022/11/15 01:05:16;;;;;;;12.07;6.05;;;10.90;99.90;;;;;;4959020;28;20073;-69
2022/11/15 01:07:42;;;;;;;11.68;6.38;;;10.90;99.90;;;;;;4976443;28;20038;-69
2022/11/15 01:10:08;;;;;;;11.68;5.53;;;11.00;99.90;;;;;;4959601;28;20029;-69
2022/11/15 01:12:34;;;;;;;9.10;5.00;;;11.10;99.90;;;;;;4959207;28;20030;-69
2022/11/15 01:14:59;;;;;;;9.40;5.07;;;11.00;99.90;;;;;;4976429;28;20023;-69
2022/11/15 01:17:25;;;;;;;9.55;5.70;;;11.00;99.90;;;;;;4958897;28;20019;-69
2022/11/15 01:19:51;;;;;;;8.30;5.20;;;11.10;99.90;;;;;;4976169;28;20039;-69
2022/11/15 01:22:16;;;;;;;11.23;5.35;;;11.10;99.90;;;;;;4959142;28;20073;-69
2022/11/15 01:24:42;;;;;;;8.63;5.22;;;11.10;99.90;;;;;;4958547;28;20039;-69
2022/11/15 01:27:08;;;;;;;11.18;5.20;;;11.10;99.90;;;;;;4976250;28;20035;-69
2022/11/15 01:29:33;;;;;;;11.73;6.47;;;11.10;99.90;;;;;;4976174;28;20114;-69
2022/11/15 01:31:59;;;;;;;12.15;5.40;;;11.10;99.90;;;;;;4958621;28;20049;-69
2022/11/15 01:34:24;;;;;;;10.90;4.53;;;11.10;99.90;;;;;;4959379;28;20029;-69
2022/11/15 01:36:50;;;;;;;7.65;4.47;;;11.10;99.90;;;;;;4958883;28;20027;-69
2022/11/15 01:39:16;;;;;;;12.20;5.30;;;10.90;99.90;;;;;;4958478;28;20019;-69
2022/11/15 01:41:42;;;;;;;8.73;4.78;;;10.80;99.90;;;;;;4958760;28;20023;-69
2022/11/15 01:44:45;;;;;;;13.15;5.32;;;10.80;99.90;;;;;;4958037;28;20041;-69
2022/11/15 01:47:38;;;;;;;9.68;5.43;;;10.80;99.90;;;;;;4958470;28;20110;-69
2022/11/15 01:50:09;;;;;;;7.57;4.57;;;10.90;99.90;;;;;;4976157;28;20089;-69
2022/11/15 01:52:37;;;;;;;9.57;4.53;;;11.00;99.90;;;;;;4958221;28;20019;-69
2022/11/15 01:55:17;;;;;;;5.32;3.65;;;11.10;99.90;;;;;;4958173;28;20309;-69
2022/11/15 01:57:46;;;;;;;12.13;5.47;;;11.10;99.90;;;;;;4976043;28;20022;-69
2022/11/15 02:00:12;;;;;;;11.27;4.63;;;11.00;99.90;;;;;;4958022;28;20429;-69
2022/11/15 02:02:39;;;;;;;9.88;5.72;;;11.00;99.90;;;;;;4975363;28;20039;-69
2022/11/15 02:05:04;;;;;;;9.27;3.90;;;11.00;99.90;;;;;;4975247;28;20037;-69
2022/11/15 02:07:31;;;;;;;9.68;5.13;;;10.90;99.90;;;;;;4975474;28;20031;-69
2022/11/15 02:10:04;;;;;;;8.70;4.38;;;10.90;99.90;;;;;;4957781;28;20034;-69
2022/11/15 02:12:30;;;;;;;11.95;5.10;;;10.80;99.90;;;;;;4957934;28;20066;-69
2022/11/15 02:14:56;;;;;;;7.22;4.20;;;10.80;99.90;;;;;;4957774;28;20057;-69
2022/11/15 02:17:32;;;;;;;10.52;4.60;;;10.80;99.90;;;;;;4957686;28;20033;-69
2022/11/15 02:20:32;;;;;;;8.45;4.00;;;10.80;99.90;;;;;;4957766;28;20031;-69
2022/11/15 02:23:25;;;;;;;6.55;4.07;;;10.80;99.90;;;;;;4957625;28;20115;-69
2022/11/15 02:26:27;;;;;;;7.38;3.70;;;10.90;99.90;;;;;;4957573;28;20046;-69
2022/11/15 02:29:08;;;;;;;8.82;4.55;;;11.00;99.90;;;;;;4957795;28;20120;-69
2022/11/15 02:31:51;;;;;;;10.18;5.05;;;11.20;99.90;;;;;;4975302;28;20045;-69
2022/11/15 02:35:04;;;;;;;10.60;4.35;;;11.30;99.90;;;;;;4957433;28;20029;-69
2022/11/15 02:37:44;;;;;;;11.38;4.43;;;11.30;99.90;;;;;;4957551;28;20027;-69
2022/11/15 02:40:25;;;;;;;9.35;4.55;;;11.40;99.90;;;;;;4957837;28;20065;-69
2022/11/15 02:45:59;;;;;;;8.57;4.80;;;11.30;99.90;;;;;;4975018;28;20110;-69
2022/11/15 02:48:25;;;;;;;7.43;4.10;;;11.10;99.90;;;;;;4957157;28;20026;-69
2022/11/15 02:50:52;;;;;;;9.13;4.55;;;11.10;99.90;;;;;;4957246;28;20027;-69
2022/11/15 02:53:17;;;;;;;5.45;3.75;;;11.00;99.90;;;;;;4957184;28;20022;-69
2022/11/15 02:55:48;;;;;;;8.27;4.13;;;11.10;99.90;;;;;;4973703;28;20094;-69
2022/11/15 02:58:22;;;;;;;8.98;4.03;;;11.00;99.90;;;;;;4957753;28;20125;-69
2022/11/15 03:01:21;;;;;;;7.43;4.28;;;11.00;99.90;;;;;;4974491;28;20493;-69
2022/11/15 03:03:55;;;;;;;9.77;4.18;;;11.00;99.90;;;;;;4957085;28;20031;-69
2022/11/15 03:06:37;;;;;;;7.60;3.70;;;11.00;99.90;;;;;;4957036;28;20489;-69
2022/11/15 03:09:24;;;;;;;7.25;4.03;;;11.00;99.90;;;;;;4957024;28;20574;-69
2022/11/15 03:12:07;;;;;;;6.88;4.03;;;11.00;99.90;;;;;;4957250;28;20094;-69
2022/11/15 03:14:38;;;;;;;6.97;3.58;;;11.00;99.90;;;;;;4957042;28;20038;-69
2022/11/15 03:17:27;;;;;;;8.23;3.97;;;11.20;99.90;;;;;;4974660;28;20023;-69
2022/11/15 03:19:56;;;;;;;8.65;3.97;;;11.20;99.90;;;;;;4957743;28;20031;-69
2022/11/15 03:22:26;;;;;;;5.63;3.53;;;11.20;99.90;;;;;;4957145;28;20059;-69
2022/11/15 03:25:00;;;;;;;10.60;4.15;;;11.20;99.90;;;;;;4993108;23;20096;-69
2022/11/15 03:27:33;;;;;;;6.57;3.70;;;11.30;99.90;;;;;;4994681;28;20038;-69
2022/11/15 03:30:03;;;;;;;7.38;4.05;;;11.30;99.90;;;;;;4997842;28;20023;-69
2022/11/15 03:32:31;;;;;;;9.00;3.70;;;11.30;99.90;;;;;;4996828;28;20023;-69
2022/11/15 03:35:02;;;;;;;7.47;3.95;;;11.20;99.90;;;;;;4985668;28;20019;-70
2022/11/15 03:37:52;;;;;;;6.67;3.60;;;11.20;99.90;;;;;;4978346;28;20037;-69
2022/11/15 03:40:24;;;;;;;9.98;3.90;;;11.30;99.90;;;;;;4976877;28;20333;-69
2022/11/15 03:43:11;;;;;;;5.35;3.75;;;11.40;99.90;;;;;;4977404;28;20031;-69
2022/11/15 03:45:45;;;;;;;8.90;3.53;;;11.40;99.90;;;;;;4973258;28;20027;-69
2022/11/15 03:48:15;;;;;;;7.13;3.92;;;11.30;99.90;;;;;;4973946;28;20086;-69
2022/11/15 03:50:43;;;;;;;10.25;3.67;;;11.30;99.90;;;;;;4973582;28;20046;-69
2022/11/15 03:53:09;;;;;;;10.57;3.95;;;11.40;99.90;;;;;;4972668;28;20023;-69
2022/11/15 03:55:34;;;;;;;5.88;3.35;;;11.40;99.90;;;;;;4973377;28;20026;-69
2022/11/15 03:58:01;;;;;;;6.25;3.35;;;11.40;99.90;;;;;;4973922;28;20073;-69
2022/11/15 04:00:27;;;;;;;5.82;3.30;;;11.40;99.90;;;;;;4973746;28;20019;-69
2022/11/15 04:02:53;;;;;;;9.93;3.92;;;11.30;99.90;;;;;;4972727;28;20544;-69
2022/11/15 04:05:19;;;;;;;8.38;3.80;;;11.20;99.90;;;;;;4972529;28;20022;-69
2022/11/15 04:07:44;;;;;;;6.97;3.40;;;11.20;99.90;;;;;;4975164;28;20478;-69
2022/11/15 04:10:11;;;;;;;7.65;3.35;;;11.10;99.90;;;;;;4976276;28;20034;-69
2022/11/15 04:12:42;;;;;;;7.57;3.42;;;11.10;99.90;;;;;;4977315;28;20026;-69
2022/11/15 04:15:10;;;;;;;6.90;4.30;;;11.10;99.90;;;;;;4975961;28;20482;-69
2022/11/15 04:17:39;;;;;;;6.05;3.85;;;11.20;99.90;;;;;;4975983;28;20086;-69
2022/11/15 04:26:06;;;;;;;6.50;3.10;;;11.20;99.90;;;;;;4978065;28;20046;-69
2022/11/15 04:28:32;;;;;;;4.70;2.97;;;11.20;99.90;;;;;;4977229;28;20038;-69
2022/11/15 04:30:58;;;;;;;5.72;3.33;;;11.20;99.90;;;;;;4975715;28;20023;-69
2022/11/15 04:33:24;;;;;;;10.73;3.38;;;11.30;99.90;;;;;;4975785;28;20110;-69
2022/11/15 04:38:34;;;;;;;5.07;3.28;;;11.30;99.90;;;;;;4977571;28;20085;-69
2022/11/15 04:41:00;;;;;;;7.30;3.03;;;11.30;99.90;;;;;;4977238;28;20022;-69
2022/11/15 04:43:26;;;;;;;10.60;3.58;;;11.20;99.90;;;;;;4975558;28;20505;-69
2022/11/15 04:45:52;;;;;;;5.70;3.35;;;11.30;99.90;;;;;;4975503;28;20081;-69
2022/11/15 04:48:17;;;;;;;10.75;3.63;;;11.30;99.90;;;;;;4975438;28;20027;-69
2022/11/15 04:50:43;;;;;;;5.88;4.13;;;11.20;99.90;;;;;;4975428;28;20050;-69
2022/11/15 04:53:08;;;;;;;7.72;3.90;;;11.20;99.90;;;;;;4975450;28;20061;-69
2022/11/15 04:55:34;;;;;;;5.93;3.28;;;11.30;99.90;;;;;;4976438;28;20073;-69
2022/11/15 04:58:01;;;;;;;5.53;3.40;;;11.30;99.90;;;;;;4975655;28;20018;-69
2022/11/15 05:00:28;;;;;;;5.75;3.67;;;11.40;99.90;;;;;;4975279;28;20109;-69
2022/11/15 05:05:38;;;;;;;6.80;3.90;;;11.20;99.90;;;;;;4976874;28;20037;-69
2022/11/15 05:08:04;;;;;;;9.82;4.10;;;11.20;99.90;;;;;;4976107;28;20022;-69
2022/11/15 05:10:30;;;;;;;5.60;3.80;;;11.30;99.90;;;;;;4976754;28;20023;-69
2022/11/15 05:12:55;;;;;;;6.78;4.13;;;11.30;99.90;;;;;;4976525;28;20446;-69
2022/11/15 05:15:21;;;;;;;5.60;3.75;;;11.30;99.90;;;;;;4975116;28;20492;-69
2022/11/15 05:17:46;;;;;;;5.57;3.60;;;11.30;99.90;;;;;;4974771;28;20022;-69
2022/11/15 05:20:12;;;;;;;6.35;3.45;;;11.20;99.90;;;;;;4974681;28;20030;-69
2022/11/15 05:22:38;;;;;;;12.73;3.83;;;11.20;99.90;;;;;;4974811;28;20039;-69
2022/11/15 05:25:04;;;;;;;6.93;3.75;;;11.20;99.90;;;;;;4975824;28;20041;-69
2022/11/15 05:27:29;;;;;;;12.05;4.18;;;11.20;99.90;;;;;;4975963;28;20038;-69
2022/11/15 05:29:55;;;;;;;6.60;3.80;;;11.10;99.90;;;;;;4976126;28;20489;-69
2022/11/15 05:32:20;;;;;;;6.63;3.80;;;11.00;99.90;;;;;;4974970;28;20081;-69
2022/11/15 05:34:46;;;;;;;7.75;4.03;;;10.90;99.90;;;;;;4975107;28;20474;-69
2022/11/15 05:37:13;;;;;;;8.20;4.25;;;10.80;99.90;;;;;;4974619;28;20023;-69
2022/11/15 05:39:38;;;;;;;7.22;4.35;;;10.70;99.90;;;;;;4974576;28;20031;-69
2022/11/15 05:42:14;;;;;;;8.77;4.18;;;10.60;99.90;;;;;;4974773;28;20614;-69
2022/11/15 05:44:46;;;;;;;11.35;4.18;;;10.40;99.90;;;;;;4975603;28;20035;-69
2022/11/15 05:47:25;;;;;;;8.52;3.92;;;10.40;99.90;;;;;;4974474;28;20432;-69
2022/11/15 05:49:53;;;;;;;10.95;4.07;;;10.40;99.90;;;;;;4974230;28;20038;-69
2022/11/15 05:52:22;;;;;;;9.80;3.92;;;10.40;99.90;;;;;;4974592;28;20019;-69
2022/11/15 05:54:48;;;;;;;7.32;3.35;;;10.30;99.90;;;;;;4975383;28;20019;-69
2022/11/15 05:57:13;;;;;;;5.07;3.53;;;10.30;99.90;;;;;;4975387;28;20023;-69
2022/11/15 05:59:40;;;;;;;7.70;3.53;;;10.20;99.90;;;;;;4974137;28;20034;-69
2022/11/15 06:02:06;;;;;;;8.18;4.07;;;10.20;99.90;;;;;;4975638;28;20101;-69
2022/11/15 06:04:32;;;;;;;8.52;4.63;;;10.20;99.90;;;;;;4974684;28;20169;-69
2022/11/15 06:06:58;;;;;;;9.60;4.72;;;10.20;99.90;;;;;;4973983;28;20027;-69
2022/11/15 06:09:24;;;;;;;10.48;4.38;;;10.20;99.90;;;;;;4973909;28;20034;-69
2022/11/15 06:11:49;;;;;;;8.85;4.28;;;10.20;99.90;;;;;;4975190;28;20035;-69
2022/11/15 06:14:15;;;;;;;7.43;3.95;;;10.20;99.90;;;;;;4973707;28;20019;-69
2022/11/15 06:16:41;;;;;;;9.55;4.53;;;10.20;99.90;;;;;;4973840;28;20026;-69
2022/11/15 06:19:07;;;;;;;10.52;4.18;;;10.20;99.90;;;;;;4975134;28;20048;-69
2022/11/15 06:21:33;;;;;;;6.97;3.55;;;10.20;99.90;;;;;;4973901;28;20030;-69
2022/11/15 06:23:58;;;;;;;12.52;4.05;;;10.20;99.90;;;;;;4975403;28;20031;-69
2022/11/15 06:26:24;;;;;;;10.75;4.30;;;10.30;99.90;;;;;;4975037;28;20042;-69
2022/11/15 06:28:49;;;;;;;6.32;3.50;;;10.30;99.90;;;;;;4974877;28;20071;-69
2022/11/15 06:31:15;;;;;;;6.57;3.67;;;10.40;99.90;;;;;;4973702;28;20034;-69
2022/11/15 06:33:41;;;;;;;6.28;3.55;;;10.40;99.90;;;;;;4975118;28;20106;-69
2022/11/15 06:36:09;;;;;;;7.78;3.97;;;10.30;99.90;;;;;;4973525;28;20027;-69
2022/11/15 06:38:36;;;;;;;10.05;3.97;;;10.30;99.90;;;;;;4974067;28;20176;-68
2022/11/15 06:41:06;;;;;;;6.63;3.60;;;10.30;99.90;;;;;;4974662;28;20042;-69
2022/11/15 06:43:33;;;;;;;8.97;4.00;;;10.30;99.90;;;;;;4975040;28;20557;-68
2022/11/15 06:45:59;;;;;;;6.22;3.40;;;10.40;99.90;;;;;;4973737;28;20108;-68
2022/11/15 06:48:25;;;;;;;10.70;4.15;;;10.50;99.90;;;;;;4973382;28;20027;-69
2022/11/15 06:50:56;;;;;;;4.80;2.90;;;10.70;99.90;;;;;;4973852;28;20038;-69
2022/11/15 06:53:21;;;;;;;10.43;4.68;;;10.80;99.90;;;;;;4973850;28;20023;-68
2022/11/15 06:55:47;;;;;;;12.98;4.25;;;10.80;99.90;;;;;;4973551;28;20030;-68
2022/11/15 06:58:13;;;;;;;7.63;3.85;;;10.80;99.90;;;;;;4974019;28;20023;-69
2022/11/15 07:00:38;;;;;;;6.57;4.53;;;10.80;99.90;;;;;;4973180;28;20026;-68
2022/11/15 07:03:04;;;;;;;7.57;3.85;;;10.80;99.90;;;;;;4973219;28;20027;-69
2022/11/15 07:05:30;;;;;;;8.73;4.22;;;10.80;99.90;;;;;;4974351;28;20043;-69
2022/11/15 07:07:57;;;;;;;10.57;4.45;;;10.70;99.90;;;;;;4974364;28;20022;-69
2022/11/15 07:10:24;;;;;;;11.55;5.35;;;10.80;99.90;;;;;;4973177;28;20038;-68
2022/11/15 07:12:51;;;;;;;10.95;4.93;;;10.70;99.90;;;;;;4973713;28;20030;-68
2022/11/15 07:15:17;;;;;;;15.30;5.30;;;10.70;99.90;;;;;;4972504;28;20027;-68
2022/11/15 07:17:43;;;;;;;8.93;4.43;;;10.70;99.90;;;;;;4972785;28;20031;-68
2022/11/15 07:20:09;;;;;;;9.60;4.47;;;10.80;99.90;;;;;;4974113;28;20105;-68
2022/11/15 07:22:34;;;;;;;9.23;4.97;;;10.70;99.90;;;;;;4974206;28;20071;-68
2022/11/15 07:25:00;;;;;;;8.00;5.15;;;10.70;99.90;;;;;;4972905;28;20133;-68
2022/11/15 07:27:25;;;;;;;8.65;4.43;;;10.80;99.90;;;;;;4974329;28;20034;-68
2022/11/15 07:29:51;;;;;;;7.20;4.57;;;10.90;99.90;;;;;;4972808;28;20049;-68
2022/11/15 07:32:16;;;;;;;8.38;4.38;;;11.00;99.90;;;;;;4973590;28;20110;-68
2022/11/15 07:34:42;;;;;;;8.85;5.07;;;11.10;99.90;;;;;;4974080;28;20023;-68
2022/11/15 07:37:08;;;;;;;10.50;4.95;;;11.10;99.90;;;;;;4972853;28;20030;-68
2022/11/15 07:39:33;;;;;;;9.88;4.43;;;11.10;99.90;;;;;;4973418;28;20122;-68
2022/11/15 07:44:43;;;;;;;16.05;6.03;;;11.20;99.90;;;;;;4978429;28;20401;-68
2022/11/15 07:47:09;;;;;;;13.88;4.57;;;11.30;99.90;;;;;;4976638;28;20026;-68
2022/11/15 07:49:35;;;;;;;6.63;4.68;;;11.40;99.90;;;;;;4976729;28;20470;-68
2022/11/15 07:52:00;;;;;;;10.02;5.18;;;11.30;99.90;;;;;;4976620;28;20030;-68
2022/11/15 07:54:26;;;;;;;9.52;4.90;;;11.30;99.90;;;;;;4976424;28;20026;-68
2022/11/15 07:56:51;;;;;;;13.23;5.05;;;11.30;99.90;;;;;;4976509;28;20023;-68
2022/11/15 07:59:17;;;;;;;9.77;4.75;;;11.30;99.90;;;;;;4976315;28;20023;-68
2022/11/15 08:01:42;;;;;;;14.07;4.82;;;11.30;99.90;;;;;;4977841;28;20033;-68
2022/11/15 08:04:10;;;;;;;11.00;4.50;;;11.20;99.90;;;;;;4976215;28;20026;-68
2022/11/15 08:06:36;;;;;;;6.95;4.05;;;11.10;99.90;;;;;;4976235;28;20057;-68
2022/11/15 08:09:02;;;;;;;10.63;5.05;;;11.10;99.90;;;;;;4976127;28;20054;-68
2022/11/15 08:11:27;;;;;;;12.27;4.78;;;11.10;99.90;;;;;;4977362;28;20438;-68
2022/11/15 08:13:53;;;;;;;9.98;3.67;;;11.20;99.90;;;;;;4977260;28;20042;-68
2022/11/15 08:16:18;;;;;;;7.80;3.78;;;11.20;99.90;;;;;;4977381;28;20035;-68
2022/11/15 08:18:44;;;;;;;7.60;4.20;;;11.20;99.90;;;;;;4975951;28;20033;-69
2022/11/15 08:21:12;;;;;;;8.07;4.32;;;11.20;99.90;;;;;;4977214;28;20027;-69
2022/11/15 08:23:38;;;;;;;7.43;4.03;;;11.20;99.90;;;;;;4975869;28;20027;-69
2022/11/15 08:26:04;;;;;;;10.45;4.10;;;11.30;99.90;;;;;;4977032;28;20035;-69
2022/11/15 08:28:31;;;;;;;9.48;3.97;;;11.40;99.90;;;;;;4977012;28;20058;-69
2022/11/15 08:30:57;;;;;;;6.38;3.50;;;11.40;99.90;;;;;;4976093;28;20019;-69
2022/11/15 08:33:23;;;;;;;7.00;3.78;;;11.40;99.90;;;;;;4976914;28;20026;-69
2022/11/15 08:35:48;;;;;;;10.27;4.20;;;11.60;99.90;;;;;;4976252;28;20019;-69
2022/11/15 08:38:14;;;;;;;7.03;3.65;;;11.60;99.90;;;;;;4975609;28;20089;-69
2022/11/15 08:40:40;;;;;;;14.32;3.88;;;11.70;99.90;;;;;;4976298;28;20034;-69
2022/11/15 08:43:06;;;;;;;6.38;3.67;;;11.70;99.90;;;;;;4975587;28;20018;-69
2022/11/15 08:45:33;;;;;;;6.32;3.83;;;11.60;99.90;;;;;;4975746;28;20026;-69
2022/11/15 08:48:02;;;;;;;5.63;3.72;;;11.60;99.90;;;;;;4975422;28;20510;-69
2022/11/15 08:50:28;;;;;;;8.00;4.00;;;11.70;99.90;;;;;;4975449;28;20078;-69
2022/11/15 08:52:53;;;;;;;10.98;3.95;;;11.80;99.90;;;;;;4976295;28;20026;-69
2022/11/15 08:55:19;;;;;;;6.47;3.50;;;11.80;99.90;;;;;;4974921;28;20018;-69
2022/11/15 08:57:45;;;;;;;8.10;3.58;;;11.90;99.90;;;;;;4975360;28;20023;-69
2022/11/15 09:00:12;;;;;;;5.15;3.20;;;12.00;99.90;;;;;;4975284;28;20057;-69
2022/11/15 09:02:39;;;;;;;5.18;3.35;;;12.00;99.90;;;;;;4975347;28;20034;-69
2022/11/15 09:05:06;;;;;;;9.00;3.88;;;12.10;99.90;;;;;;4975233;28;20038;-69
2022/11/15 09:07:31;;;;;;;5.97;3.92;;;12.10;99.90;;;;;;4975156;28;20026;-69
2022/11/15 09:09:57;;;;;;;7.30;3.60;;;12.20;99.90;;;;;;4974958;28;20085;-69
2022/11/15 09:12:24;;;;;;;6.28;3.30;;;12.10;99.90;;;;;;4976275;28;20023;-69
2022/11/15 09:14:50;;;;;;;10.07;3.70;;;12.10;99.90;;;;;;4974952;28;20085;-69
2022/11/15 09:17:15;;;;;;;5.53;3.08;;;12.30;99.90;;;;;;4975712;28;20045;-69
2022/11/15 09:19:41;;;;;;;8.40;3.20;;;12.30;99.90;;;;;;4976302;28;20023;-69
2022/11/15 09:22:08;;;;;;;6.95;3.65;;;12.40;99.90;;;;;;4975168;28;20057;-69
2022/11/15 09:24:34;;;;;;;5.82;3.63;;;12.50;99.90;;;;;;4975480;28;20045;-69
2022/11/15 09:26:59;;;;;;;6.50;3.38;;;12.50;99.90;;;;;;4974811;28;20065;-68
2022/11/15 09:29:25;;;;;;;7.95;3.15;;;12.60;99.90;;;;;;4975563;28;20050;-69
2022/11/15 09:31:54;;;;;;;6.03;3.47;;;12.60;99.90;;;;;;4974726;28;20038;-69
2022/11/15 09:34:20;;;;;;;7.40;3.90;;;12.60;99.90;;;;;;4974641;28;20027;-69
2022/11/15 09:36:46;;;;;;;5.82;3.55;;;12.60;99.90;;;;;;4974542;28;20061;-69
2022/11/15 09:39:11;;;;;;;8.98;3.90;;;12.70;99.90;;;;;;4974608;28;20054;-69
2022/11/15 09:42:02;;;;;;;5.68;3.60;;;12.70;99.90;;;;;;4974466;28;20034;-69
2022/11/15 09:44:46;;;;;;;6.57;3.92;;;12.70;99.90;;;;;;4975870;28;20030;-69
2022/11/15 09:47:36;;;;;;;9.35;4.00;;;12.60;99.90;;;;;;4974888;28;20114;-69
2022/11/15 09:50:12;;;;;;;7.90;3.53;;;12.50;99.90;;;;;;4974355;28;20126;-69
2022/11/15 09:52:42;;;;;;;8.52;3.50;;;12.50;99.90;;;;;;4975630;28;20023;-69
2022/11/15 09:55:13;;;;;;;7.93;4.43;;;12.60;99.90;;;;;;4975460;28;20027;-69
2022/11/15 09:57:47;;;;;;;9.40;3.85;;;12.70;99.90;;;;;;4975810;28;20018;-69
2022/11/15 10:00:36;;;;;;;7.72;3.85;;;12.60;99.90;;;;;;4975138;28;20066;-69
2022/11/15 10:03:12;;;;;;;9.23;4.57;;;12.70;99.90;;;;;;4975429;28;20026;-69
2022/11/15 10:05:51;;;;;;;13.95;4.15;;;12.90;99.90;;;;;;4975003;28;20077;-69
2022/11/15 10:08:46;;;;;;;7.03;3.42;;;13.00;99.90;;;;;;4974793;28;20062;-69
2022/11/15 10:11:18;;;;;;;7.70;4.30;;;13.00;99.90;;;;;;4974762;28;20023;-69
2022/11/15 10:13:47;;;;;;;11.70;4.03;;;13.10;99.90;;;;;;4975494;28;20025;-69
2022/11/15 10:16:29;;;;;;;9.20;3.42;;;13.10;99.90;;;;;;4974235;28;20098;-69
2022/11/15 10:19:32;;;;;;;9.18;5.05;;;13.10;99.90;;;;;;4975306;28;20023;-69
2022/11/15 10:22:16;;;;;;;10.82;4.63;;;13.10;99.90;;;;;;4973802;28;20069;-69
2022/11/15 10:24:44;;;;;;;7.55;4.18;;;13.10;99.90;;;;;;4973592;28;20549;-69
2022/11/15 10:27:13;;;;;;;8.45;3.95;;;13.20;99.90;;;;;;4974524;28;20165;-69
2022/11/15 10:29:44;;;;;;;6.97;3.83;;;13.30;99.90;;;;;;4974413;28;20067;-69
2022/11/15 10:32:12;;;;;;;8.45;3.72;;;13.30;99.90;;;;;;4973655;28;20030;-69
2022/11/15 10:34:39;;;;;;;10.43;4.18;;;13.20;99.90;;;;;;4973864;28;20051;-69
2022/11/15 10:37:04;;;;;;;5.65;3.60;;;13.40;99.90;;;;;;4973579;28;20090;-69
2022/11/15 10:39:30;;;;;;;8.35;4.03;;;13.40;99.90;;;;;;4973820;28;20030;-69
2022/11/15 10:41:56;;;;;;;8.32;3.80;;;13.50;99.90;;;;;;4975283;28;20034;-69
2022/11/15 10:44:24;;;;;;;8.57;3.78;;;13.50;99.90;;;;;;4974897;28;20023;-69
2022/11/15 10:46:55;;;;;;;7.60;3.85;;;13.40;99.90;;;;;;4974707;28;20058;-69
2022/11/15 10:49:32;;;;;;;8.52;4.07;;;13.50;99.90;;;;;;4973446;28;20038;-69
2022/11/15 10:52:19;;;;;;;7.80;3.90;;;13.50;99.90;;;;;;4974785;28;20054;-69
2022/11/15 10:54:47;;;;;;;7.68;4.22;;;13.60;99.90;;;;;;4974728;28;20018;-69
2022/11/15 10:57:18;;;;;;;13.52;4.93;;;13.50;99.90;;;;;;4974905;28;20077;-69
2022/11/15 10:59:57;;;;;;;8.05;4.15;;;13.60;99.90;;;;;;4973862;28;20031;-69
2022/11/15 11:02:56;;;;;;;16.73;4.47;;;13.70;99.90;;;;;;4973251;28;20037;-69
2022/11/15 11:05:47;;;;;;;10.07;4.07;;;13.70;99.90;;;;;;4974402;28;20094;-69
2022/11/15 11:08:13;;;;;;;9.00;4.10;;;13.70;99.90;;;;;;4973092;28;20033;-69
2022/11/15 11:10:39;;;;;;;8.88;3.97;;;13.80;99.90;;;;;;4973141;28;20030;-69
2022/11/15 11:13:21;;;;;;;8.30;3.45;;;14.00;99.90;;;;;;4973481;28;20027;-69
2022/11/15 11:15:51;;;;;;;6.18;3.90;;;14.30;99.90;;;;;;4973060;28;20027;-69
2022/11/15 11:18:43;;;;;;;5.63;3.42;;;14.40;99.90;;;;;;4973591;28;20352;-69
2022/11/15 11:21:13;;;;;;;10.68;3.72;;;14.30;99.90;;;;;;4973411;28;20027;-70
2022/11/15 11:24:06;;;;;;;6.55;3.78;;;14.30;99.90;;;;;;4973330;28;20085;-70
2022/11/15 11:27:00;;;;;;;6.47;3.88;;;14.30;99.90;;;;;;4974210;28;20062;-69
2022/11/15 11:29:47;;;;;;;4.75;3.13;;;14.20;99.90;;;;;;4973999;28;20067;-69
2022/11/15 11:32:34;;;;;;;4.22;3.17;;;14.40;99.90;;;;;;4972962;28;20033;-69
2022/11/15 11:35:14;;;;;;;11.80;2.78;;;14.80;99.90;;;;;;4972781;28;20363;-69
2022/11/15 11:38:10;;;;;;;4.82;3.05;;;14.80;99.90;;;;;;4974247;28;20057;-69
2022/11/15 11:41:04;;;;;;;4.43;2.75;;;14.80;99.90;;;;;;4972838;28;20023;-69
2022/11/15 11:43:41;;;;;;;8.38;3.67;;;14.70;99.90;;;;;;4972928;28;20085;-69
2022/11/15 11:46:28;;;;;;;4.50;2.70;;;14.70;99.90;;;;;;4973982;28;20098;-69
2022/11/15 11:49:12;;;;;;;7.93;3.20;;;14.80;99.90;;;;;;4974218;28;20062;-69
2022/11/15 11:52:13;;;;;;;4.65;2.60;;;14.60;99.90;;;;;;4974211;28;20027;-69
2022/11/15 11:55:12;;;;;;;7.78;3.08;;;14.50;99.90;;;;;;4932678;28;20382;-69
2022/11/15 11:58:08;;;;;;;8.73;3.45;;;14.50;99.90;;;;;;4974170;28;20034;-69
2022/11/15 12:00:40;;;;;;;6.93;2.83;;;14.40;99.90;;;;;;4898686;29;20040;-69
2022/11/15 12:03:36;;;;;;;4.10;2.85;;;14.30;99.90;;;;;;4899210;29;20024;-69
2022/11/15 12:06:09;;;;;;;4.97;2.90;;;14.30;99.90;;;;;;4898725;29;20040;-68
2022/11/15 12:08:56;;;;;;;5.13;2.95;;;14.50;99.90;;;;;;4914377;29;20032;-69
2022/11/15 12:12:08;;;;;;;6.18;2.72;;;14.50;99.90;;;;;;4898789;29;20043;-69
2022/11/15 12:14:48;;;;;;;4.35;3.05;;;14.70;99.90;;;;;;4887217;29;20104;-69
2022/11/15 12:17:19;;;;;;;5.03;2.78;;;14.60;99.90;;;;;;4898541;29;20028;-69
2022/11/15 12:19:45;;;;;;;4.97;3.07;;;14.60;99.90;;;;;;4899139;29;20111;-69
2022/11/15 12:22:18;;;;;;;7.53;3.50;;;14.70;99.90;;;;;;4898993;29;20060;-69
2022/11/15 12:24:53;;;;;;;6.28;3.15;;;14.70;99.90;;;;;;4914254;29;20048;-69
2022/11/15 12:27:33;;;;;;;3.85;2.63;;;14.50;99.90;;;;;;4898519;29;20028;-69
2022/11/15 12:30:07;;;;;;;7.35;3.35;;;14.40;99.90;;;;;;4902010;29;20032;-69
2022/11/15 12:32:38;;;;;;;6.32;3.65;;;14.60;99.90;;;;;;4902055;29;20051;-69
2022/11/15 12:35:19;;;;;;;6.88;3.17;;;14.60;99.90;;;;;;4902091;29;20031;-69
2022/11/15 12:37:49;;;;;;;;;;;14.60;99.90;;;;;;4957828;28;20073;-69
2022/11/15 12:40:25;;;;;;;8.77;3.55;;;14.10;99.90;;;;;;4976886;28;19906;-69
2022/11/15 12:43:13;;;;;;;4.15;3.25;;;14.00;99.90;;;;;;4975643;28;20039;-69
2022/11/15 12:45:44;;;;;;;6.97;3.25;;;14.10;99.90;;;;;;4977056;28;20101;-69
2022/11/15 12:48:15;;;;;;;10.52;3.50;;;14.10;99.90;;;;;;4977059;28;20030;-69
2022/11/15 12:51:01;;;;;;;8.02;3.63;;;14.00;99.90;;;;;;4975526;28;20035;-69
2022/11/15 12:53:31;;;;;;;10.65;3.33;;;14.10;99.90;;;;;;4975418;28;20035;-69
2022/11/15 12:56:03;;;;;;;8.35;3.80;;;14.30;99.90;;;;;;4976933;28;20070;-69
2022/11/15 12:58:42;;;;;;;7.53;3.97;;;14.30;99.90;;;;;;4975501;28;20033;-68
2022/11/15 13:01:08;;;;;;;13.85;5.00;;;14.20;99.90;;;;;;4975367;28;20026;-68
2022/11/15 13:03:34;;;;;;;6.43;3.72;;;14.20;99.90;;;;;;4976232;28;20118;-68
2022/11/15 13:06:03;;;;;;;7.20;4.07;;;14.20;99.90;;;;;;4976423;28;20019;-68
2022/11/15 13:08:41;;;;;;;10.75;4.03;;;14.20;99.90;;;;;;4975323;28;20033;-68
2022/11/15 13:11:43;;;;;;;6.65;3.85;;;14.20;99.90;;;;;;4975898;28;20054;-67
2022/11/15 13:14:36;;;;;;;10.05;4.10;;;14.10;99.90;;;;;;4970828;28;20026;-67
2022/11/15 13:17:21;;;;;;;7.82;4.10;;;14.10;99.90;;;;;;4974946;28;20105;-67
2022/11/15 13:19:52;;;;;;;9.25;4.40;;;14.10;99.90;;;;;;4975366;28;20545;-67
2022/11/15 13:25:02;;;;;;;9.02;4.20;;;13.80;99.90;;;;;;4976593;28;20093;-67